createdAt,value
2023-02-13T00:00:48.122Z,0.69
2023-02-13T00:03:14.594Z,0.66
2023-02-13T00:05:40.834Z,0.66
2023-02-13T00:08:07.239Z,0.70
2023-02-13T00:10:33.595Z,0.68
2023-02-13T00:12:59.920Z,0.64
2023-02-13T00:15:26.328Z,0.61
2023-02-13T00:17:52.653Z,0.65
2023-02-13T00:20:19.009Z,0.69
2023-02-13T00:22:45.477Z,0.71
2023-02-13T00:25:11.792Z,0.70
2023-02-13T00:27:38.173Z,0.74
2023-02-13T00:30:04.503Z,0.77
2023-02-13T00:32:30.876Z,0.76
2023-02-13T00:34:57.305Z,0.73
2023-02-13T00:37:23.597Z,0.69
2023-02-13T00:39:49.934Z,0.67
2023-02-13T00:42:16.307Z,0.68
2023-02-13T00:44:42.625Z,0.70
2023-02-13T00:47:09.004Z,0.69
2023-02-13T00:49:35.355Z,0.64
2023-02-13T00:52:01.756Z,0.65
2023-02-13T00:54:28.071Z,0.64
2023-02-13T00:56:54.511Z,0.57
2023-02-13T00:59:20.793Z,0.59
2023-02-13T01:01:47.245Z,0.57
2023-02-13T01:04:13.537Z,0.63
2023-02-13T01:06:39.907Z,0.63
2023-02-13T01:09:06.309Z,0.65
2023-02-13T01:11:32.624Z,0.75
2023-02-13T01:13:58.981Z,0.75
2023-02-13T01:16:25.442Z,0.67
2023-02-13T01:18:51.742Z,0.49
2023-02-13T01:21:18.110Z,0.29
2023-02-13T01:23:44.443Z,0.07
2023-02-13T01:26:10.798Z,-0.06
2023-02-13T01:28:37.272Z,-0.02
2023-02-13T01:31:03.739Z,0.06
2023-02-13T01:33:29.921Z,0.05
2023-02-13T01:35:56.359Z,0.05
2023-02-13T01:38:22.687Z,-0.01
2023-02-13T01:40:49.053Z,-0.14
2023-02-13T01:43:15.409Z,-0.24
2023-02-13T01:45:41.781Z,-0.37
2023-02-13T01:48:08.133Z,-0.39
2023-02-13T01:50:34.583Z,-0.45
2023-02-13T01:53:00.932Z,-0.44
2023-02-13T01:55:27.306Z,-0.43
2023-02-13T01:57:53.664Z,-0.39
2023-02-13T02:00:19.997Z,-0.42
2023-02-13T02:02:46.436Z,-0.45
2023-02-13T02:05:12.696Z,-0.45
2023-02-13T02:07:39.101Z,-0.42
2023-02-13T02:10:05.430Z,-0.24
2023-02-13T02:12:31.791Z,-0.25
2023-02-13T02:14:58.172Z,-0.19
2023-02-13T02:17:24.531Z,-0.07
2023-02-13T02:19:50.903Z,-0.05
2023-02-13T02:22:17.221Z,0.04
2023-02-13T02:24:43.598Z,0.12
2023-02-13T02:27:09.997Z,0.14
2023-02-13T02:29:36.319Z,0.18
2023-02-13T02:32:02.685Z,0.24
2023-02-13T02:34:29.068Z,0.30
2023-02-13T02:36:55.387Z,0.36
2023-02-13T02:39:21.800Z,0.41
2023-02-13T02:41:48.132Z,0.42
2023-02-13T02:44:14.501Z,0.38
2023-02-13T02:46:40.925Z,0.45
2023-02-13T02:49:07.283Z,0.41
2023-02-13T02:51:33.639Z,0.34
2023-02-13T02:53:59.981Z,0.32
2023-02-13T02:56:26.357Z,0.27
2023-02-13T02:58:52.703Z,0.13
2023-02-13T03:01:19.182Z,0.02
2023-02-13T03:03:45.483Z,-0.16
2023-02-13T03:06:11.780Z,-0.34
2023-02-13T03:08:38.210Z,-0.43
2023-02-13T03:11:04.558Z,-0.47
2023-02-13T03:13:31.044Z,-0.53
2023-02-13T03:15:57.335Z,-0.62
2023-02-13T03:18:23.681Z,-0.69
2023-02-13T03:20:50.005Z,-0.77
2023-02-13T03:23:16.474Z,-0.86
2023-02-13T03:25:42.762Z,-0.90
2023-02-13T03:28:09.163Z,-0.90
2023-02-13T03:30:35.523Z,-0.93
2023-02-13T03:33:01.884Z,-0.93
2023-02-13T03:35:28.312Z,-0.93
2023-02-13T03:37:54.614Z,-0.99
2023-02-13T03:40:20.983Z,-0.96
2023-02-13T03:42:47.343Z,-0.96
2023-02-13T03:45:13.680Z,-1.02
2023-02-13T03:47:40.110Z,-1.00
2023-02-13T03:50:06.487Z,-1.01
2023-02-13T03:52:32.813Z,-0.94
2023-02-13T03:54:59.184Z,-0.94
2023-02-13T03:57:25.580Z,-0.97
2023-02-13T03:59:51.910Z,-1.04
2023-02-13T04:02:18.342Z,-1.09
2023-02-13T04:04:44.624Z,-1.18
2023-02-13T04:07:10.942Z,-1.29
2023-02-13T04:09:37.297Z,-1.43
2023-02-13T04:12:03.611Z,-1.47
2023-02-13T04:14:29.951Z,-1.46
2023-02-13T04:16:56.311Z,-1.38
2023-02-13T04:19:22.636Z,-1.30
2023-02-13T04:21:49.001Z,-1.38
2023-02-13T04:24:15.386Z,-1.43
2023-02-13T04:26:41.718Z,-1.46
2023-02-13T04:29:08.057Z,-1.53
2023-02-13T04:31:34.515Z,-1.46
2023-02-13T04:34:00.868Z,-1.50
2023-02-13T04:36:27.222Z,-1.50
2023-02-13T04:38:53.598Z,-1.48
2023-02-13T04:41:19.969Z,-1.46
2023-02-13T04:43:46.310Z,-1.44
2023-02-13T04:46:14.712Z,-1.28
2023-02-13T04:48:39.102Z,-1.15
2023-02-13T04:51:05.413Z,-1.21
2023-02-13T04:53:31.752Z,-1.23
2023-02-13T04:55:58.106Z,-1.23
2023-02-13T04:58:24.549Z,-1.16
2023-02-13T05:00:50.859Z,-1.17
2023-02-13T05:03:17.213Z,-1.22
2023-02-13T05:05:43.605Z,-1.24
2023-02-13T05:08:09.940Z,-1.22
2023-02-13T05:10:36.271Z,-1.26
2023-02-13T05:13:02.648Z,-1.23
2023-02-13T05:15:29.026Z,-1.22
2023-02-13T05:17:55.337Z,-1.19
2023-02-13T05:20:21.719Z,-1.19
2023-02-13T05:22:48.101Z,-1.21
2023-02-13T05:25:14.417Z,-1.26
2023-02-13T05:27:40.842Z,-1.30
2023-02-13T05:30:07.213Z,-1.32
2023-02-13T05:32:33.643Z,-1.33
2023-02-13T05:34:59.943Z,-1.31
2023-02-13T05:37:26.318Z,-1.30
2023-02-13T05:39:52.657Z,-1.27
2023-02-13T05:42:19.117Z,-1.25
2023-02-13T05:44:45.496Z,-1.19
2023-02-13T05:47:11.861Z,-1.18
2023-02-13T05:49:38.225Z,-1.08
2023-02-13T05:52:04.561Z,-1.02
2023-02-13T05:54:30.877Z,-0.93
2023-02-13T05:56:57.312Z,-0.89
2023-02-13T05:59:24.094Z,-0.87
2023-02-13T06:01:50.018Z,-0.80
2023-02-13T06:04:16.432Z,-0.72
2023-02-13T06:06:42.701Z,-0.62
2023-02-13T06:09:09.070Z,-0.49
2023-02-13T06:11:35.449Z,-0.60
2023-02-13T06:14:01.822Z,-0.66
2023-02-13T06:16:28.244Z,-0.63
2023-02-13T06:18:54.576Z,-0.55
2023-02-13T06:21:22.515Z,-0.46
2023-02-13T06:23:47.241Z,-0.38
2023-02-13T06:26:13.594Z,-0.16
2023-02-13T06:28:40.047Z,-0.19
2023-02-13T06:31:06.440Z,-0.17
2023-02-13T06:33:32.717Z,-0.13
2023-02-13T06:35:59.065Z,-0.13
2023-02-13T06:38:25.715Z,-0.07
2023-02-13T06:40:52.147Z,0.06
2023-02-13T06:43:18.392Z,0.22
2023-02-13T06:45:45.029Z,0.27
2023-02-13T06:48:11.386Z,0.36
2023-02-13T06:50:37.760Z,0.41
2023-02-13T06:53:04.191Z,0.53
2023-02-13T06:55:30.542Z,0.61
2023-02-13T06:57:56.887Z,0.73
2023-02-13T07:00:24.290Z,0.94
2023-02-13T07:02:49.997Z,1.08
2023-02-13T07:05:16.287Z,1.32
2023-02-13T07:07:42.632Z,1.82
2023-02-13T07:10:10.035Z,2.41
2023-02-13T07:12:36.352Z,2.80
2023-02-13T07:15:02.760Z,3.00
2023-02-13T07:17:29.117Z,2.85
2023-02-13T07:19:55.525Z,2.67
2023-02-13T07:22:21.926Z,2.48
2023-02-13T07:24:48.259Z,2.08
2023-02-13T07:27:14.581Z,1.99
2023-02-13T07:29:40.996Z,1.92
2023-02-13T07:32:07.425Z,1.86
2023-02-13T07:34:36.294Z,1.53
2023-02-13T07:37:02.620Z,1.46
2023-02-13T07:39:28.995Z,1.59
2023-02-13T07:41:55.357Z,1.89
2023-02-13T07:44:21.728Z,2.30
2023-02-13T07:46:48.135Z,2.95
2023-02-13T07:49:14.433Z,2.78
2023-02-13T07:51:40.767Z,2.42
2023-02-13T07:54:07.160Z,2.23
2023-02-13T07:56:33.492Z,1.97
2023-02-13T07:58:59.854Z,1.77
2023-02-13T08:01:26.256Z,1.63
2023-02-13T08:03:52.687Z,1.94
2023-02-13T08:06:19.163Z,2.05
2023-02-13T08:08:45.534Z,2.17
2023-02-13T08:11:12.277Z,2.28
2023-02-13T08:13:38.675Z,2.27
2023-02-13T08:16:05.035Z,2.35
2023-02-13T08:18:31.422Z,2.23
2023-02-13T08:20:57.872Z,2.21
2023-02-13T08:23:24.218Z,2.33
2023-02-13T08:25:50.584Z,2.33
2023-02-13T08:28:16.991Z,2.24
2023-02-13T08:30:43.329Z,2.30
2023-02-13T08:33:09.675Z,2.37
2023-02-13T08:35:36.084Z,2.47
2023-02-13T08:38:02.438Z,2.58
2023-02-13T08:40:28.766Z,2.75
2023-02-13T08:42:56.947Z,2.93
2023-02-13T08:45:21.524Z,2.95
2023-02-13T08:47:47.924Z,3.19
2023-02-13T08:50:14.285Z,3.33
2023-02-13T08:52:40.654Z,3.31
2023-02-13T08:55:07.232Z,3.40
2023-02-13T08:57:33.611Z,3.47
2023-02-13T08:59:59.966Z,3.56
2023-02-13T09:02:26.516Z,3.56
2023-02-13T09:04:52.720Z,3.43
2023-02-13T09:07:19.098Z,3.31
2023-02-13T09:09:45.732Z,3.39
2023-02-13T09:12:12.149Z,3.51
2023-02-13T09:14:38.478Z,3.68
2023-02-13T09:17:04.877Z,3.82
2023-02-13T09:19:31.277Z,3.91
2023-02-13T09:21:57.611Z,3.86
2023-02-13T09:24:23.963Z,3.83
2023-02-13T09:26:50.349Z,3.80
2023-02-13T09:29:16.731Z,3.86
2023-02-13T09:31:43.231Z,3.88
2023-02-13T09:34:09.666Z,4.01
2023-02-13T09:36:36.022Z,4.06
2023-02-13T09:39:02.384Z,4.18
2023-02-13T09:41:28.740Z,4.43
2023-02-13T09:43:55.186Z,4.52
2023-02-13T09:46:21.563Z,4.59
2023-02-13T09:48:47.903Z,4.77
2023-02-13T09:51:14.572Z,4.95
2023-02-13T09:53:40.921Z,4.97
2023-02-13T09:56:07.307Z,4.89
2023-02-13T09:58:33.880Z,4.92
2023-02-13T10:01:00.264Z,5.22
2023-02-13T10:03:26.817Z,5.31
2023-02-13T10:05:55.207Z,5.44
2023-02-13T10:08:19.632Z,5.70
2023-02-13T10:10:45.964Z,5.70
2023-02-13T10:13:12.305Z,5.22
2023-02-13T10:15:38.814Z,5.59
2023-02-13T10:18:05.006Z,6.18
2023-02-13T10:20:31.407Z,7.26
2023-02-13T10:22:57.764Z,7.99
2023-02-13T10:25:24.459Z,8.27
2023-02-13T10:27:50.794Z,7.97
2023-02-13T10:30:17.176Z,7.83
2023-02-13T10:32:43.473Z,8.06
2023-02-13T10:35:09.927Z,8.07
2023-02-13T10:37:36.248Z,8.55
2023-02-13T10:40:02.596Z,8.51
2023-02-13T10:42:28.936Z,8.32
2023-02-13T10:44:55.300Z,8.59
2023-02-13T10:47:21.615Z,8.86
2023-02-13T10:49:48.187Z,9.36
2023-02-13T10:52:14.549Z,9.25
2023-02-13T10:54:40.879Z,9.38
2023-02-13T10:57:07.450Z,9.57
2023-02-13T10:59:33.788Z,9.37
2023-02-13T11:02:00.299Z,9.86
2023-02-13T11:04:26.662Z,10.36
2023-02-13T11:06:53.190Z,10.02
2023-02-13T11:09:19.688Z,9.67
2023-02-13T11:11:46.053Z,9.55
2023-02-13T11:14:12.709Z,10.16
2023-02-13T11:16:39.111Z,10.65
2023-02-13T11:19:05.454Z,10.73
2023-02-13T11:21:31.778Z,10.80
2023-02-13T11:23:58.236Z,10.70
2023-02-13T11:26:24.619Z,10.82
2023-02-13T11:28:51.010Z,10.62
2023-02-13T11:31:17.388Z,10.94
2023-02-13T11:33:43.666Z,10.94
2023-02-13T11:36:10.013Z,10.72
2023-02-13T11:38:36.382Z,10.55
2023-02-13T11:41:02.920Z,10.43
2023-02-13T11:43:29.711Z,10.93
2023-02-13T11:45:56.072Z,10.68
2023-02-13T11:48:22.581Z,10.53
2023-02-13T11:50:48.945Z,10.65
2023-02-13T11:53:15.316Z,10.99
2023-02-13T11:55:41.683Z,11.20
2023-02-13T11:58:08.032Z,11.40
2023-02-13T12:00:34.669Z,11.63
2023-02-13T12:03:01.279Z,11.57
2023-02-13T12:05:27.556Z,11.81
2023-02-13T12:07:53.976Z,11.90
2023-02-13T12:10:20.510Z,11.94
2023-02-13T12:12:46.885Z,12.21
2023-02-13T12:15:13.199Z,11.90
2023-02-13T12:17:39.620Z,11.62
2023-02-13T12:20:06.037Z,11.67
2023-02-13T12:22:34.667Z,11.98
2023-02-13T12:24:58.860Z,12.01
2023-02-13T12:27:25.267Z,11.85
2023-02-13T12:29:51.580Z,11.50
2023-02-13T12:32:17.959Z,11.52
2023-02-13T12:34:44.417Z,11.35
2023-02-13T12:37:10.794Z,11.35
2023-02-13T12:39:37.157Z,11.07
2023-02-13T12:42:03.543Z,10.92
2023-02-13T12:44:29.910Z,11.50
2023-02-13T12:46:56.239Z,11.31
2023-02-13T12:49:22.577Z,11.46
2023-02-13T12:51:48.935Z,11.20
2023-02-13T12:54:15.309Z,11.04
2023-02-13T12:56:41.734Z,11.47
2023-02-13T12:59:08.039Z,11.10
2023-02-13T13:01:34.406Z,11.06
2023-02-13T13:04:00.727Z,11.15
2023-02-13T13:06:27.210Z,11.49
2023-02-13T13:08:53.565Z,11.76
2023-02-13T13:11:19.928Z,11.65
2023-02-13T13:13:46.685Z,11.62
2023-02-13T13:16:14.192Z,11.67
2023-02-13T13:18:39.450Z,11.95
2023-02-13T13:21:05.787Z,12.03
2023-02-13T13:23:34.573Z,11.66
2023-02-13T13:26:00.953Z,11.52
2023-02-13T13:28:27.623Z,11.47
2023-02-13T13:30:54.079Z,11.46
2023-02-13T13:33:20.309Z,11.64
2023-02-13T13:35:46.981Z,11.72
2023-02-13T13:38:13.345Z,11.89
2023-02-13T13:40:39.681Z,11.49
2023-02-13T13:43:06.243Z,11.28
2023-02-13T13:45:32.587Z,11.07
2023-02-13T13:47:59.022Z,10.87
2023-02-13T13:50:25.337Z,10.68
2023-02-13T13:52:51.702Z,10.24
2023-02-13T13:55:18.081Z,9.93
2023-02-13T13:57:44.496Z,9.88
2023-02-13T14:00:13.936Z,9.52
2023-02-13T14:02:37.202Z,9.35
2023-02-13T14:05:03.768Z,9.21
2023-02-13T14:07:30.096Z,9.31
2023-02-13T14:09:56.604Z,9.21
2023-02-13T14:12:22.975Z,9.05
2023-02-13T14:14:49.312Z,8.87
2023-02-13T14:17:15.823Z,8.76
2023-02-13T14:19:42.218Z,8.65
2023-02-13T14:22:08.636Z,8.49
2023-02-13T14:24:34.962Z,8.40
2023-02-13T14:27:06.229Z,8.25
2023-02-13T14:29:27.726Z,8.19
2023-02-13T14:31:54.576Z,8.23
2023-02-13T14:34:20.832Z,8.22
2023-02-13T14:36:47.245Z,8.04
2023-02-13T14:39:13.595Z,7.97
2023-02-13T14:41:41.355Z,7.94
2023-02-13T14:44:06.437Z,7.98
2023-02-13T14:46:33.063Z,7.92
2023-02-13T14:48:59.384Z,7.87
2023-02-13T14:51:25.757Z,7.84
2023-02-13T14:53:52.607Z,7.73
2023-02-13T14:56:19.353Z,7.64
2023-02-13T14:58:46.249Z,7.53
2023-02-13T15:01:12.943Z,7.52
2023-02-13T15:03:41.334Z,7.49
2023-02-13T15:06:08.052Z,7.43
2023-02-13T15:08:34.801Z,7.41
2023-02-13T15:11:01.753Z,7.33
2023-02-13T15:13:29.461Z,7.31
2023-02-13T15:15:55.442Z,7.21
2023-02-13T15:18:22.169Z,7.15
2023-02-13T15:20:48.550Z,7.07
2023-02-13T15:23:14.868Z,7.00
2023-02-13T15:25:41.247Z,6.86
2023-02-13T15:28:07.589Z,6.84
2023-02-13T15:30:33.943Z,6.82
2023-02-13T15:33:00.271Z,6.78
2023-02-13T15:35:26.647Z,6.68
2023-02-13T15:37:53.023Z,6.63
2023-02-13T15:40:19.413Z,6.63
2023-02-13T15:42:46.045Z,6.59
2023-02-13T15:45:12.384Z,6.48
2023-02-13T15:47:38.717Z,6.41
2023-02-13T15:50:05.113Z,6.38
2023-02-13T15:52:31.440Z,6.32
2023-02-13T15:54:58.039Z,6.26
2023-02-13T15:57:24.497Z,6.24
2023-02-13T15:59:50.784Z,6.13
2023-02-13T16:02:17.344Z,6.04
2023-02-13T16:04:43.721Z,5.97
2023-02-13T16:07:10.074Z,5.97
2023-02-13T16:09:36.467Z,5.90
2023-02-13T16:12:02.780Z,5.81
2023-02-13T16:14:29.168Z,5.74
2023-02-13T16:16:55.534Z,5.72
2023-02-13T16:19:21.857Z,5.65
2023-02-13T16:21:48.218Z,5.62
2023-02-13T16:24:14.593Z,5.61
2023-02-13T16:26:40.925Z,5.56
2023-02-13T16:29:07.374Z,5.53
2023-02-13T16:31:33.824Z,5.48
2023-02-13T16:34:00.128Z,5.46
2023-02-13T16:36:26.524Z,5.44
2023-02-13T16:38:52.876Z,5.38
2023-02-13T16:41:19.299Z,5.30
2023-02-13T16:43:45.714Z,5.25
2023-02-13T16:46:12.452Z,5.26
2023-02-13T16:48:38.875Z,5.16
2023-02-13T16:51:05.394Z,5.12
2023-02-13T16:53:34.011Z,5.08
2023-02-13T16:55:58.158Z,5.06
2023-02-13T16:58:24.557Z,5.02
2023-02-13T17:00:50.977Z,4.99
2023-02-13T17:03:17.316Z,4.95
2023-02-13T17:05:43.676Z,4.91
2023-02-13T17:08:10.052Z,4.88
2023-02-13T17:10:36.384Z,4.87
2023-02-13T17:13:02.765Z,4.83
2023-02-13T17:15:29.123Z,4.81
2023-02-13T17:17:55.468Z,4.77
2023-02-13T17:20:23.036Z,4.74
2023-02-13T17:22:49.347Z,4.67
2023-02-13T17:25:15.815Z,4.69
2023-02-13T17:27:42.343Z,4.64
2023-02-13T17:30:08.698Z,4.58
2023-02-13T17:32:35.015Z,4.49
2023-02-13T17:35:01.438Z,4.43
2023-02-13T17:37:27.784Z,4.38
2023-02-13T17:39:54.172Z,4.33
2023-02-13T17:42:20.618Z,4.31
2023-02-13T17:44:46.969Z,4.27
2023-02-13T17:47:13.359Z,4.22
2023-02-13T17:49:39.943Z,4.21
2023-02-13T17:52:06.384Z,4.18
2023-02-13T17:54:32.746Z,4.12
2023-02-13T17:56:59.170Z,4.09
2023-02-13T17:59:25.847Z,4.08
2023-02-13T18:01:51.897Z,4.03
2023-02-13T18:04:18.256Z,4.01
2023-02-13T18:06:44.626Z,4.04
2023-02-13T18:09:10.974Z,4.00
2023-02-13T18:11:37.335Z,3.93
2023-02-13T18:14:03.633Z,3.88
2023-02-13T18:16:30.042Z,3.84
2023-02-13T18:18:56.596Z,3.84
2023-02-13T18:21:23.012Z,3.82
2023-02-13T18:23:49.338Z,3.79
2023-02-13T18:26:16.120Z,3.78
2023-02-13T18:28:42.434Z,3.76
2023-02-13T18:31:09.010Z,3.76
2023-02-13T18:33:35.276Z,3.76
2023-02-13T18:36:02.760Z,3.74
2023-02-13T18:38:29.099Z,3.70
2023-02-13T18:40:55.553Z,3.66
2023-02-13T18:43:22.298Z,3.62
2023-02-13T18:45:48.723Z,3.61
2023-02-13T18:48:15.023Z,3.56
2023-02-13T18:50:41.784Z,3.55
2023-02-13T18:53:08.319Z,3.50
2023-02-13T18:55:34.685Z,3.50
2023-02-13T18:58:01.184Z,3.50
2023-02-13T19:00:27.637Z,3.43
2023-02-13T19:02:54.108Z,3.43
2023-02-13T19:05:20.651Z,3.41
2023-02-13T19:07:48.279Z,3.42
2023-02-13T19:10:14.648Z,3.42
2023-02-13T19:12:40.965Z,3.42
2023-02-13T19:15:07.356Z,3.42
2023-02-13T19:17:33.797Z,3.43
2023-02-13T19:20:00.212Z,3.43
2023-02-13T19:22:26.578Z,3.38
2023-02-13T19:24:55.153Z,3.35
2023-02-13T19:27:21.737Z,3.32
2023-02-13T19:29:48.111Z,3.30
2023-02-13T19:32:14.478Z,3.30
2023-02-13T19:34:40.864Z,3.32
2023-02-13T19:37:07.340Z,3.34
2023-02-13T19:39:33.681Z,3.30
2023-02-13T19:42:00.008Z,3.24
2023-02-13T19:44:26.397Z,3.27
2023-02-13T19:46:52.766Z,3.29
2023-02-13T19:49:19.139Z,3.30
2023-02-13T19:51:45.440Z,3.30
2023-02-13T19:54:11.898Z,3.30
2023-02-13T19:56:38.857Z,3.33
2023-02-13T19:59:05.220Z,3.36
2023-02-13T20:01:31.620Z,3.37
2023-02-13T20:03:58.445Z,3.35
2023-02-13T20:06:24.863Z,3.34
2023-02-13T20:08:51.263Z,3.34
2023-02-13T20:11:17.836Z,3.35
2023-02-13T20:13:44.317Z,3.32
2023-02-13T20:16:10.718Z,3.31
2023-02-13T20:18:37.156Z,3.28
2023-02-13T20:21:03.583Z,3.27
2023-02-13T20:23:30.018Z,3.29
2023-02-13T20:25:56.415Z,3.32
2023-02-13T20:28:22.757Z,3.32
2023-02-13T20:30:49.385Z,3.30
2023-02-13T20:33:15.850Z,3.29
2023-02-13T20:35:42.166Z,3.33
2023-02-13T20:38:08.563Z,3.32
2023-02-13T20:40:34.959Z,3.34
2023-02-13T20:43:01.388Z,3.34
2023-02-13T20:45:27.781Z,3.34
2023-02-13T20:47:54.108Z,3.32
2023-02-13T20:50:20.517Z,3.35
2023-02-13T20:52:46.897Z,3.34
2023-02-13T20:55:13.227Z,3.32
2023-02-13T20:57:39.607Z,3.31
2023-02-13T21:00:06.003Z,3.31
2023-02-13T21:02:32.351Z,3.30
2023-02-13T21:04:58.717Z,3.27
2023-02-13T21:07:25.038Z,3.23
2023-02-13T21:09:51.390Z,3.18
2023-02-13T21:12:17.785Z,3.15
2023-02-13T21:14:44.092Z,3.10
2023-02-13T21:17:10.508Z,3.09
2023-02-13T21:19:36.864Z,3.10
2023-02-13T21:22:03.233Z,3.12
2023-02-13T21:24:29.883Z,3.12
2023-02-13T21:26:56.223Z,3.06
2023-02-13T21:29:22.534Z,3.04
2023-02-13T21:31:49.129Z,3.02
2023-02-13T21:34:15.441Z,3.02
2023-02-13T21:36:41.786Z,3.01
2023-02-13T21:39:08.397Z,3.04
2023-02-13T21:41:34.742Z,3.07
2023-02-13T21:44:01.155Z,3.06
2023-02-13T21:46:27.604Z,3.06
2023-02-13T21:48:53.945Z,3.06
2023-02-13T21:51:20.270Z,3.08
2023-02-13T21:53:46.809Z,3.06
2023-02-13T21:56:13.182Z,3.02
2023-02-13T21:58:39.538Z,2.92
2023-02-13T22:01:11.451Z,2.68
2023-02-13T22:03:32.238Z,2.50
2023-02-13T22:05:58.611Z,2.43
2023-02-13T22:08:24.997Z,2.31
2023-02-13T22:10:51.402Z,2.34
2023-02-13T22:13:17.714Z,2.23
2023-02-13T22:15:44.056Z,2.23
2023-02-13T22:18:10.394Z,2.16
2023-02-13T22:20:36.877Z,2.09
2023-02-13T22:23:03.202Z,2.07
2023-02-13T22:25:29.547Z,2.16
2023-02-13T22:27:55.944Z,2.20
2023-02-13T22:30:22.304Z,2.27
2023-02-13T22:32:48.638Z,2.33
2023-02-13T22:35:15.004Z,2.40
2023-02-13T22:37:41.363Z,2.50
2023-02-13T22:40:07.709Z,2.54
2023-02-13T22:42:34.100Z,2.60
2023-02-13T22:45:00.480Z,2.67
2023-02-13T22:47:26.812Z,2.70
2023-02-13T22:49:53.197Z,2.69
2023-02-13T22:52:19.556Z,2.74
2023-02-13T22:54:45.937Z,2.78
2023-02-13T22:57:12.364Z,2.83
2023-02-13T22:59:40.189Z,2.80
2023-02-13T23:02:05.149Z,2.80
2023-02-13T23:04:31.556Z,2.77
2023-02-13T23:06:57.821Z,2.78
2023-02-13T23:09:24.232Z,2.77
2023-02-13T23:11:50.588Z,2.83
2023-02-13T23:14:16.934Z,2.88
2023-02-13T23:16:43.317Z,2.90
2023-02-13T23:19:09.672Z,2.88
2023-02-13T23:21:35.995Z,2.90
2023-02-13T23:24:02.338Z,2.90
2023-02-13T23:26:28.705Z,2.86
2023-02-13T23:28:55.046Z,2.81
2023-02-13T23:31:21.540Z,2.79
2023-02-13T23:33:47.753Z,2.67
2023-02-13T23:36:14.075Z,2.61
2023-02-13T23:38:40.403Z,2.54
2023-02-13T23:41:06.993Z,2.55
2023-02-13T23:43:33.314Z,2.61
2023-02-13T23:45:59.708Z,2.59
2023-02-13T23:48:26.058Z,2.56
2023-02-13T23:50:52.408Z,2.57
2023-02-13T23:53:18.738Z,2.46
2023-02-13T23:55:45.057Z,2.12
2023-02-13T23:58:11.435Z,1.61
